sensor_id;sensor_type;location;lat;lon;timestamp;P1;durP1;ratioP1;P2;durP2;ratioP2
36359;SDS011;22388;52.432;20.662;2023-07-08T00:00:28;11.82;;;4.35;;
36359;SDS011;22388;52.432;20.662;2023-07-08T00:03:52;11.80;;;4.85;;
36359;SDS011;22388;52.432;20.662;2023-07-08T00:07:16;11.85;;;4.68;;
36359;SDS011;22388;52.432;20.662;2023-07-08T00:10:43;8.95;;;4.22;;
36359;SDS011;22388;52.432;20.662;2023-07-08T00:14:07;8.07;;;4.30;;
36359;SDS011;22388;52.432;20.662;2023-07-08T00:17:32;9.07;;;3.90;;
36359;SDS011;22388;52.432;20.662;2023-07-08T00:20:56;14.65;;;4.47;;
36359;SDS011;22388;52.432;20.662;2023-07-08T00:24:20;8.98;;;4.20;;
36359;SDS011;22388;52.432;20.662;2023-07-08T00:27:45;8.57;;;3.70;;
36359;SDS011;22388;52.432;20.662;2023-07-08T00:31:10;7.90;;;3.75;;
36359;SDS011;22388;52.432;20.662;2023-07-08T00:34:38;7.22;;;3.97;;
36359;SDS011;22388;52.432;20.662;2023-07-08T00:42:00;7.63;;;3.40;;
36359;SDS011;22388;52.432;20.662;2023-07-08T00:45:37;8.15;;;3.72;;
36359;SDS011;22388;52.432;20.662;2023-07-08T00:56:52;13.25;;;6.30;;
36359;SDS011;22388;52.432;20.662;2023-07-08T01:00:17;11.10;;;6.07;;
36359;SDS011;22388;52.432;20.662;2023-07-08T01:07:19;9.20;;;5.15;;
36359;SDS011;22388;52.432;20.662;2023-07-08T01:10:46;10.55;;;4.93;;
36359;SDS011;22388;52.432;20.662;2023-07-08T01:14:12;15.15;;;5.20;;
36359;SDS011;22388;52.432;20.662;2023-07-08T01:17:40;13.82;;;5.10;;
36359;SDS011;22388;52.432;20.662;2023-07-08T01:21:28;9.13;;;3.90;;
36359;SDS011;22388;52.432;20.662;2023-07-08T01:24:50;6.10;;;3.90;;
36359;SDS011;22388;52.432;20.662;2023-07-08T01:28:14;5.93;;;3.63;;
36359;SDS011;22388;52.432;20.662;2023-07-08T01:31:39;6.45;;;3.50;;
36359;SDS011;22388;52.432;20.662;2023-07-08T01:35:04;9.25;;;3.95;;
36359;SDS011;22388;52.432;20.662;2023-07-08T01:38:29;7.80;;;3.70;;
36359;SDS011;22388;52.432;20.662;2023-07-08T01:41:55;8.90;;;4.45;;
36359;SDS011;22388;52.432;20.662;2023-07-08T01:45:20;7.88;;;3.50;;
36359;SDS011;22388;52.432;20.662;2023-07-08T01:48:53;7.15;;;3.83;;
36359;SDS011;22388;52.432;20.662;2023-07-08T01:52:18;5.82;;;3.42;;
36359;SDS011;22388;52.432;20.662;2023-07-08T01:55:45;8.20;;;3.67;;
36359;SDS011;22388;52.432;20.662;2023-07-08T01:59:09;7.05;;;3.50;;
36359;SDS011;22388;52.432;20.662;2023-07-08T02:02:33;6.68;;;3.80;;
36359;SDS011;22388;52.432;20.662;2023-07-08T02:05:57;9.20;;;3.88;;
36359;SDS011;22388;52.432;20.662;2023-07-08T02:09:24;7.85;;;3.70;;
36359;SDS011;22388;52.432;20.662;2023-07-08T02:12:50;7.97;;;3.58;;
36359;SDS011;22388;52.432;20.662;2023-07-08T02:16:14;8.13;;;3.45;;
36359;SDS011;22388;52.432;20.662;2023-07-08T02:19:42;9.20;;;3.63;;
36359;SDS011;22388;52.432;20.662;2023-07-08T02:23:07;6.57;;;3.67;;
36359;SDS011;22388;52.432;20.662;2023-07-08T02:26:32;5.82;;;3.70;;
36359;SDS011;22388;52.432;20.662;2023-07-08T02:29:56;10.13;;;4.45;;
36359;SDS011;22388;52.432;20.662;2023-07-08T02:33:20;7.88;;;3.92;;
36359;SDS011;22388;52.432;20.662;2023-07-08T02:36:45;11.88;;;3.55;;
36359;SDS011;22388;52.432;20.662;2023-07-08T02:40:10;8.35;;;3.50;;
36359;SDS011;22388;52.432;20.662;2023-07-08T02:43:36;7.40;;;3.90;;
36359;SDS011;22388;52.432;20.662;2023-07-08T02:47:00;8.70;;;4.00;;
36359;SDS011;22388;52.432;20.662;2023-07-08T02:50:24;8.82;;;4.35;;
36359;SDS011;22388;52.432;20.662;2023-07-08T02:53:49;5.95;;;3.50;;
36359;SDS011;22388;52.432;20.662;2023-07-08T02:57:13;7.53;;;4.18;;
36359;SDS011;22388;52.432;20.662;2023-07-08T03:00:37;11.65;;;4.10;;
36359;SDS011;22388;52.432;20.662;2023-07-08T03:04:07;7.90;;;4.05;;
36359;SDS011;22388;52.432;20.662;2023-07-08T03:07:31;7.93;;;4.30;;
36359;SDS011;22388;52.432;20.662;2023-07-08T03:10:56;9.02;;;3.90;;
36359;SDS011;22388;52.432;20.662;2023-07-08T03:14:20;9.98;;;4.60;;
36359;SDS011;22388;52.432;20.662;2023-07-08T03:17:45;9.73;;;4.32;;
36359;SDS011;22388;52.432;20.662;2023-07-08T03:21:16;8.40;;;4.47;;
36359;SDS011;22388;52.432;20.662;2023-07-08T03:24:41;7.28;;;4.03;;
36359;SDS011;22388;52.432;20.662;2023-07-08T03:28:06;8.57;;;4.63;;
36359;SDS011;22388;52.432;20.662;2023-07-08T03:31:31;9.02;;;4.55;;
36359;SDS011;22388;52.432;20.662;2023-07-08T03:34:55;9.48;;;4.68;;
36359;SDS011;22388;52.432;20.662;2023-07-08T03:38:19;10.35;;;4.82;;
36359;SDS011;22388;52.432;20.662;2023-07-08T03:41:44;9.57;;;4.75;;
36359;SDS011;22388;52.432;20.662;2023-07-08T03:45:09;10.15;;;4.90;;
36359;SDS011;22388;52.432;20.662;2023-07-08T03:48:37;9.40;;;4.55;;
36359;SDS011;22388;52.432;20.662;2023-07-08T03:52:01;7.55;;;4.40;;
36359;SDS011;22388;52.432;20.662;2023-07-08T03:55:26;10.38;;;5.20;;
36359;SDS011;22388;52.432;20.662;2023-07-08T03:58:51;7.70;;;4.47;;
36359;SDS011;22388;52.432;20.662;2023-07-08T04:02:15;8.25;;;4.57;;
36359;SDS011;22388;52.432;20.662;2023-07-08T04:05:39;8.48;;;4.43;;
36359;SDS011;22388;52.432;20.662;2023-07-08T04:09:03;10.82;;;5.15;;
36359;SDS011;22388;52.432;20.662;2023-07-08T04:12:28;8.93;;;4.40;;
36359;SDS011;22388;52.432;20.662;2023-07-08T04:15:55;9.93;;;4.90;;
36359;SDS011;22388;52.432;20.662;2023-07-08T04:19:23;10.13;;;5.57;;
36359;SDS011;22388;52.432;20.662;2023-07-08T04:22:47;10.82;;;5.35;;
36359;SDS011;22388;52.432;20.662;2023-07-08T04:26:12;11.52;;;5.43;;
36359;SDS011;22388;52.432;20.662;2023-07-08T04:29:40;10.25;;;5.05;;
36359;SDS011;22388;52.432;20.662;2023-07-08T04:33:12;8.60;;;5.50;;
36359;SDS011;22388;52.432;20.662;2023-07-08T04:36:37;13.35;;;5.90;;
36359;SDS011;22388;52.432;20.662;2023-07-08T04:40:02;35.05;;;6.57;;
36359;SDS011;22388;52.432;20.662;2023-07-08T04:43:27;11.27;;;5.88;;
36359;SDS011;22388;52.432;20.662;2023-07-08T04:46:55;19.65;;;6.50;;
36359;SDS011;22388;52.432;20.662;2023-07-08T04:50:20;12.88;;;5.93;;
36359;SDS011;22388;52.432;20.662;2023-07-08T04:53:44;13.80;;;6.10;;
36359;SDS011;22388;52.432;20.662;2023-07-08T04:57:08;11.75;;;5.85;;
36359;SDS011;22388;52.432;20.662;2023-07-08T05:00:32;11.02;;;6.13;;
36359;SDS011;22388;52.432;20.662;2023-07-08T05:03:56;13.43;;;6.57;;
36359;SDS011;22388;52.432;20.662;2023-07-08T05:07:21;14.75;;;6.60;;
36359;SDS011;22388;52.432;20.662;2023-07-08T05:10:45;12.95;;;6.88;;
36359;SDS011;22388;52.432;20.662;2023-07-08T05:14:10;13.02;;;6.35;;
36359;SDS011;22388;52.432;20.662;2023-07-08T05:17:34;14.73;;;7.20;;
36359;SDS011;22388;52.432;20.662;2023-07-08T05:20:58;20.10;;;7.80;;
36359;SDS011;22388;52.432;20.662;2023-07-08T05:24:22;18.67;;;6.80;;
36359;SDS011;22388;52.432;20.662;2023-07-08T05:27:47;18.88;;;7.47;;
36359;SDS011;22388;52.432;20.662;2023-07-08T05:31:11;18.33;;;7.68;;
36359;SDS011;22388;52.432;20.662;2023-07-08T05:34:38;18.70;;;6.70;;
36359;SDS011;22388;52.432;20.662;2023-07-08T05:38:02;14.75;;;7.40;;
36359;SDS011;22388;52.432;20.662;2023-07-08T05:41:26;29.30;;;7.07;;
36359;SDS011;22388;52.432;20.662;2023-07-08T05:44:50;14.80;;;6.90;;
36359;SDS011;22388;52.432;20.662;2023-07-08T05:48:14;19.58;;;6.90;;
36359;SDS011;22388;52.432;20.662;2023-07-08T05:51:40;17.13;;;6.53;;
36359;SDS011;22388;52.432;20.662;2023-07-08T05:55:04;13.63;;;6.18;;
36359;SDS011;22388;52.432;20.662;2023-07-08T05:58:29;11.80;;;6.38;;
36359;SDS011;22388;52.432;20.662;2023-07-08T06:01:53;13.95;;;6.20;;
36359;SDS011;22388;52.432;20.662;2023-07-08T06:05:18;12.35;;;6.30;;
36359;SDS011;22388;52.432;20.662;2023-07-08T06:08:42;16.45;;;5.95;;
36359;SDS011;22388;52.432;20.662;2023-07-08T06:12:06;12.13;;;6.00;;
36359;SDS011;22388;52.432;20.662;2023-07-08T06:15:30;15.48;;;5.53;;
36359;SDS011;22388;52.432;20.662;2023-07-08T06:18:56;11.82;;;5.57;;
36359;SDS011;22388;52.432;20.662;2023-07-08T06:22:20;31.50;;;7.03;;
36359;SDS011;22388;52.432;20.662;2023-07-08T06:25:44;10.85;;;5.40;;
36359;SDS011;22388;52.432;20.662;2023-07-08T06:29:08;10.48;;;5.18;;
36359;SDS011;22388;52.432;20.662;2023-07-08T06:32:33;13.43;;;5.00;;
36359;SDS011;22388;52.432;20.662;2023-07-08T06:35:57;10.55;;;4.78;;
36359;SDS011;22388;52.432;20.662;2023-07-08T06:39:21;10.52;;;4.88;;
36359;SDS011;22388;52.432;20.662;2023-07-08T06:42:45;12.70;;;4.50;;
36359;SDS011;22388;52.432;20.662;2023-07-08T06:46:09;8.18;;;3.92;;
36359;SDS011;22388;52.432;20.662;2023-07-08T06:49:34;8.23;;;3.97;;
36359;SDS011;22388;52.432;20.662;2023-07-08T06:52:58;8.52;;;3.85;;
36359;SDS011;22388;52.432;20.662;2023-07-08T06:56:22;10.55;;;3.97;;
36359;SDS011;22388;52.432;20.662;2023-07-08T06:59:46;10.40;;;4.38;;
36359;SDS011;22388;52.432;20.662;2023-07-08T07:03:11;9.23;;;3.80;;
36359;SDS011;22388;52.432;20.662;2023-07-08T07:06:35;6.60;;;3.65;;
36359;SDS011;22388;52.432;20.662;2023-07-08T07:09:59;8.82;;;3.25;;
36359;SDS011;22388;52.432;20.662;2023-07-08T07:13:23;7.65;;;3.17;;
36359;SDS011;22388;52.432;20.662;2023-07-08T07:16:47;6.10;;;3.67;;
36359;SDS011;22388;52.432;20.662;2023-07-08T07:20:12;10.75;;;3.42;;
36359;SDS011;22388;52.432;20.662;2023-07-08T07:23:36;4.63;;;2.80;;
36359;SDS011;22388;52.432;20.662;2023-07-08T07:27:00;9.00;;;3.08;;
36359;SDS011;22388;52.432;20.662;2023-07-08T07:30:24;7.90;;;3.00;;
36359;SDS011;22388;52.432;20.662;2023-07-08T07:33:49;7.25;;;2.53;;
36359;SDS011;22388;52.432;20.662;2023-07-08T07:37:14;7.05;;;2.28;;
36359;SDS011;22388;52.432;20.662;2023-07-08T07:40:41;4.82;;;2.10;;
36359;SDS011;22388;52.432;20.662;2023-07-08T07:44:06;7.85;;;2.10;;
36359;SDS011;22388;52.432;20.662;2023-07-08T07:47:31;6.30;;;1.73;;
36359;SDS011;22388;52.432;20.662;2023-07-08T07:50:55;8.38;;;1.77;;
36359;SDS011;22388;52.432;20.662;2023-07-08T07:54:19;3.67;;;1.52;;
36359;SDS011;22388;52.432;20.662;2023-07-08T07:57:43;3.97;;;2.10;;
36359;SDS011;22388;52.432;20.662;2023-07-08T08:04:50;6.60;;;1.60;;
36359;SDS011;22388;52.432;20.662;2023-07-08T08:08:15;5.95;;;1.80;;
36359;SDS011;22388;52.432;20.662;2023-07-08T08:11:39;4.95;;;1.70;;
36359;SDS011;22388;52.432;20.662;2023-07-08T08:15:04;3.90;;;1.83;;
36359;SDS011;22388;52.432;20.662;2023-07-08T08:18:31;5.10;;;1.60;;
36359;SDS011;22388;52.432;20.662;2023-07-08T08:21:56;5.15;;;2.03;;
36359;SDS011;22388;52.432;20.662;2023-07-08T08:25:22;3.88;;;1.80;;
36359;SDS011;22388;52.432;20.662;2023-07-08T08:28:57;3.50;;;1.90;;
36359;SDS011;22388;52.432;20.662;2023-07-08T08:32:21;5.15;;;2.03;;
36359;SDS011;22388;52.432;20.662;2023-07-08T08:35:45;4.22;;;1.90;;
36359;SDS011;22388;52.432;20.662;2023-07-08T08:39:09;3.90;;;2.00;;
36359;SDS011;22388;52.432;20.662;2023-07-08T08:42:40;5.05;;;2.00;;
36359;SDS011;22388;52.432;20.662;2023-07-08T08:46:12;5.30;;;2.17;;
36359;SDS011;22388;52.432;20.662;2023-07-08T08:53:40;5.68;;;1.80;;
36359;SDS011;22388;52.432;20.662;2023-07-08T08:57:17;2.65;;;1.80;;
36359;SDS011;22388;52.432;20.662;2023-07-08T09:01:04;6.88;;;1.98;;
36359;SDS011;22388;52.432;20.662;2023-07-08T09:04:41;5.68;;;1.85;;
36359;SDS011;22388;52.432;20.662;2023-07-08T09:08:20;4.93;;;1.90;;
36359;SDS011;22388;52.432;20.662;2023-07-08T09:15:54;6.23;;;1.90;;
36359;SDS011;22388;52.432;20.662;2023-07-08T09:19:25;3.35;;;1.55;;
36359;SDS011;22388;52.432;20.662;2023-07-08T09:26:39;5.50;;;2.20;;
36359;SDS011;22388;52.432;20.662;2023-07-08T09:30:07;4.70;;;1.80;;
36359;SDS011;22388;52.432;20.662;2023-07-08T09:33:34;4.32;;;2.00;;
36359;SDS011;22388;52.432;20.662;2023-07-08T09:37:03;7.85;;;2.20;;
36359;SDS011;22388;52.432;20.662;2023-07-08T09:40:32;6.65;;;1.70;;
36359;SDS011;22388;52.432;20.662;2023-07-08T09:44:04;12.02;;;1.90;;
36359;SDS011;22388;52.432;20.662;2023-07-08T09:47:36;8.02;;;2.05;;
36359;SDS011;22388;52.432;20.662;2023-07-08T09:51:01;5.68;;;1.92;;
36359;SDS011;22388;52.432;20.662;2023-07-08T09:54:26;4.68;;;1.80;;
36359;SDS011;22388;52.432;20.662;2023-07-08T09:57:51;3.90;;;1.90;;
36359;SDS011;22388;52.432;20.662;2023-07-08T10:01:23;6.72;;;1.90;;
36359;SDS011;22388;52.432;20.662;2023-07-08T10:04:57;7.40;;;2.00;;
36359;SDS011;22388;52.432;20.662;2023-07-08T10:08:23;9.05;;;2.30;;
36359;SDS011;22388;52.432;20.662;2023-07-08T10:11:56;6.43;;;2.25;;
36359;SDS011;22388;52.432;20.662;2023-07-08T10:15:34;4.10;;;2.10;;
36359;SDS011;22388;52.432;20.662;2023-07-08T10:19:00;4.60;;;1.83;;
36359;SDS011;22388;52.432;20.662;2023-07-08T10:22:36;6.25;;;1.77;;
36359;SDS011;22388;52.432;20.662;2023-07-08T10:30:00;5.07;;;2.00;;
36359;SDS011;22388;52.432;20.662;2023-07-08T10:33:42;5.32;;;2.05;;
36359;SDS011;22388;52.432;20.662;2023-07-08T10:40:54;5.82;;;2.17;;
36359;SDS011;22388;52.432;20.662;2023-07-08T10:44:56;7.30;;;2.17;;
36359;SDS011;22388;52.432;20.662;2023-07-08T11:04:30;7.70;;;2.10;;
36359;SDS011;22388;52.432;20.662;2023-07-08T11:08:08;6.60;;;2.55;;
36359;SDS011;22388;52.432;20.662;2023-07-08T11:11:51;6.40;;;2.30;;
36359;SDS011;22388;52.432;20.662;2023-07-08T11:19:48;4.20;;;2.33;;
36359;SDS011;22388;52.432;20.662;2023-07-08T11:26:58;5.60;;;2.00;;
36359;SDS011;22388;52.432;20.662;2023-07-08T11:30:26;3.88;;;2.10;;
36359;SDS011;22388;52.432;20.662;2023-07-08T11:33:52;5.95;;;2.33;;
36359;SDS011;22388;52.432;20.662;2023-07-08T11:37:18;5.65;;;2.20;;
36359;SDS011;22388;52.432;20.662;2023-07-08T11:40:51;6.10;;;2.08;;
36359;SDS011;22388;52.432;20.662;2023-07-08T11:44:16;6.07;;;2.40;;
36359;SDS011;22388;52.432;20.662;2023-07-08T11:47:46;3.85;;;2.20;;
36359;SDS011;22388;52.432;20.662;2023-07-08T11:51:19;4.57;;;1.80;;
36359;SDS011;22388;52.432;20.662;2023-07-08T11:54:48;7.55;;;2.03;;
36359;SDS011;22388;52.432;20.662;2023-07-08T11:58:21;9.50;;;2.75;;
36359;SDS011;22388;52.432;20.662;2023-07-08T12:01:47;5.40;;;2.13;;
36359;SDS011;22388;52.432;20.662;2023-07-08T12:05:12;3.67;;;2.08;;
36359;SDS011;22388;52.432;20.662;2023-07-08T12:08:52;5.97;;;2.30;;
36359;SDS011;22388;52.432;20.662;2023-07-08T12:12:31;3.80;;;2.20;;
36359;SDS011;22388;52.432;20.662;2023-07-08T12:15:56;5.88;;;2.15;;
36359;SDS011;22388;52.432;20.662;2023-07-08T12:19:21;3.22;;;1.95;;
36359;SDS011;22388;52.432;20.662;2023-07-08T12:22:57;4.70;;;2.35;;
36359;SDS011;22388;52.432;20.662;2023-07-08T12:26:28;6.97;;;2.10;;
36359;SDS011;22388;52.432;20.662;2023-07-08T12:29:57;10.48;;;2.20;;
36359;SDS011;22388;52.432;20.662;2023-07-08T12:33:32;4.57;;;2.00;;
36359;SDS011;22388;52.432;20.662;2023-07-08T12:36:56;4.50;;;2.10;;
36359;SDS011;22388;52.432;20.662;2023-07-08T12:40:27;4.78;;;2.22;;
36359;SDS011;22388;52.432;20.662;2023-07-08T12:44:00;3.55;;;2.00;;
36359;SDS011;22388;52.432;20.662;2023-07-08T12:47:24;7.80;;;2.22;;
36359;SDS011;22388;52.432;20.662;2023-07-08T12:50:48;4.93;;;1.92;;
36359;SDS011;22388;52.432;20.662;2023-07-08T12:54:13;3.85;;;1.85;;
36359;SDS011;22388;52.432;20.662;2023-07-08T12:57:39;7.72;;;2.20;;
36359;SDS011;22388;52.432;20.662;2023-07-08T13:01:06;2.90;;;1.92;;
36359;SDS011;22388;52.432;20.662;2023-07-08T13:04:34;5.32;;;2.30;;
36359;SDS011;22388;52.432;20.662;2023-07-08T13:08:00;3.40;;;2.20;;
36359;SDS011;22388;52.432;20.662;2023-07-08T13:11:33;5.00;;;2.20;;
36359;SDS011;22388;52.432;20.662;2023-07-08T13:15:00;6.82;;;2.10;;
36359;SDS011;22388;52.432;20.662;2023-07-08T13:21:55;3.22;;;2.00;;
36359;SDS011;22388;52.432;20.662;2023-07-08T13:25:20;4.88;;;2.33;;
36359;SDS011;22388;52.432;20.662;2023-07-08T13:29:06;6.10;;;2.50;;
36359;SDS011;22388;52.432;20.662;2023-07-08T13:32:42;3.80;;;2.30;;
36359;SDS011;22388;52.432;20.662;2023-07-08T13:36:10;5.85;;;2.60;;
36359;SDS011;22388;52.432;20.662;2023-07-08T13:39:35;3.75;;;2.42;;
36359;SDS011;22388;52.432;20.662;2023-07-08T13:43:00;7.20;;;2.30;;
36359;SDS011;22388;52.432;20.662;2023-07-08T13:46:37;4.95;;;2.53;;
36359;SDS011;22388;52.432;20.662;2023-07-08T13:50:07;5.72;;;2.53;;
36359;SDS011;22388;52.432;20.662;2023-07-08T13:53:48;3.20;;;2.15;;
36359;SDS011;22388;52.432;20.662;2023-07-08T13:57:17;4.53;;;2.70;;
36359;SDS011;22388;52.432;20.662;2023-07-08T14:00:42;4.20;;;2.13;;
36359;SDS011;22388;52.432;20.662;2023-07-08T14:04:10;5.35;;;2.35;;
36359;SDS011;22388;52.432;20.662;2023-07-08T14:07:35;7.75;;;2.35;;
36359;SDS011;22388;52.432;20.662;2023-07-08T14:10:59;4.75;;;2.47;;
36359;SDS011;22388;52.432;20.662;2023-07-08T14:14:23;8.40;;;2.40;;
36359;SDS011;22388;52.432;20.662;2023-07-08T14:17:48;4.78;;;2.42;;
36359;SDS011;22388;52.432;20.662;2023-07-08T14:21:12;4.18;;;2.20;;
36359;SDS011;22388;52.432;20.662;2023-07-08T14:24:39;5.25;;;1.92;;
36359;SDS011;22388;52.432;20.662;2023-07-08T14:28:04;4.60;;;2.50;;
36359;SDS011;22388;52.432;20.662;2023-07-08T14:31:28;6.53;;;2.42;;
36359;SDS011;22388;52.432;20.662;2023-07-08T14:34:55;5.72;;;2.30;;
36359;SDS011;22388;52.432;20.662;2023-07-08T14:38:19;5.63;;;2.33;;
36359;SDS011;22388;52.432;20.662;2023-07-08T14:41:44;3.30;;;2.20;;
36359;SDS011;22388;52.432;20.662;2023-07-08T14:45:09;6.95;;;2.20;;
36359;SDS011;22388;52.432;20.662;2023-07-08T14:48:34;7.20;;;2.78;;
36359;SDS011;22388;52.432;20.662;2023-07-08T14:51:58;4.35;;;2.10;;
36359;SDS011;22388;52.432;20.662;2023-07-08T14:55:22;5.28;;;2.70;;
36359;SDS011;22388;52.432;20.662;2023-07-08T14:58:46;4.40;;;2.33;;
36359;SDS011;22388;52.432;20.662;2023-07-08T15:02:16;4.50;;;2.08;;
36359;SDS011;22388;52.432;20.662;2023-07-08T15:05:41;3.72;;;1.95;;
36359;SDS011;22388;52.432;20.662;2023-07-08T15:09:06;4.07;;;2.20;;
36359;SDS011;22388;52.432;20.662;2023-07-08T15:12:30;9.77;;;2.47;;
36359;SDS011;22388;52.432;20.662;2023-07-08T15:15:54;8.30;;;2.47;;
36359;SDS011;22388;52.432;20.662;2023-07-08T15:19:19;3.28;;;2.08;;
36359;SDS011;22388;52.432;20.662;2023-07-08T15:22:44;3.17;;;1.90;;
36359;SDS011;22388;52.432;20.662;2023-07-08T15:26:11;4.00;;;2.25;;
36359;SDS011;22388;52.432;20.662;2023-07-08T15:29:36;4.60;;;2.50;;
36359;SDS011;22388;52.432;20.662;2023-07-08T15:33:02;60.13;;;6.07;;
36359;SDS011;22388;52.432;20.662;2023-07-08T15:36:29;10.05;;;2.92;;
36359;SDS011;22388;52.432;20.662;2023-07-08T15:39:53;6.57;;;2.20;;
36359;SDS011;22388;52.432;20.662;2023-07-08T15:43:17;7.45;;;2.53;;
36359;SDS011;22388;52.432;20.662;2023-07-08T15:46:42;5.68;;;2.45;;
36359;SDS011;22388;52.432;20.662;2023-07-08T15:50:11;6.82;;;1.83;;
36359;SDS011;22388;52.432;20.662;2023-07-08T15:53:38;4.70;;;2.05;;
36359;SDS011;22388;52.432;20.662;2023-07-08T15:57:03;6.43;;;2.03;;
36359;SDS011;22388;52.432;20.662;2023-07-08T16:00:33;6.05;;;2.20;;
36359;SDS011;22388;52.432;20.662;2023-07-08T16:03:58;7.88;;;2.53;;
36359;SDS011;22388;52.432;20.662;2023-07-08T16:07:22;5.25;;;2.35;;
36359;SDS011;22388;52.432;20.662;2023-07-08T16:10:51;5.88;;;2.17;;
36359;SDS011;22388;52.432;20.662;2023-07-08T16:14:16;4.38;;;2.20;;
36359;SDS011;22388;52.432;20.662;2023-07-08T16:17:41;3.33;;;1.98;;
36359;SDS011;22388;52.432;20.662;2023-07-08T16:21:06;5.43;;;2.00;;
36359;SDS011;22388;52.432;20.662;2023-07-08T16:24:31;3.15;;;1.80;;
36359;SDS011;22388;52.432;20.662;2023-07-08T16:27:57;4.13;;;2.17;;
36359;SDS011;22388;52.432;20.662;2023-07-08T16:31:21;7.15;;;2.20;;
36359;SDS011;22388;52.432;20.662;2023-07-08T16:34:48;5.32;;;2.10;;
36359;SDS011;22388;52.432;20.662;2023-07-08T16:38:12;5.18;;;2.15;;
36359;SDS011;22388;52.432;20.662;2023-07-08T16:41:36;4.47;;;2.20;;
36359;SDS011;22388;52.432;20.662;2023-07-08T16:45:01;3.75;;;2.42;;
36359;SDS011;22388;52.432;20.662;2023-07-08T16:48:25;9.10;;;2.40;;
36359;SDS011;22388;52.432;20.662;2023-07-08T16:51:49;4.60;;;2.30;;
36359;SDS011;22388;52.432;20.662;2023-07-08T16:55:15;6.18;;;2.38;;
36359;SDS011;22388;52.432;20.662;2023-07-08T16:58:42;8.05;;;1.92;;
36359;SDS011;22388;52.432;20.662;2023-07-08T17:02:13;8.27;;;2.38;;
36359;SDS011;22388;52.432;20.662;2023-07-08T17:05:38;5.30;;;2.80;;
36359;SDS011;22388;52.432;20.662;2023-07-08T17:09:02;6.53;;;2.38;;
36359;SDS011;22388;52.432;20.662;2023-07-08T17:12:27;10.32;;;2.50;;
36359;SDS011;22388;52.432;20.662;2023-07-08T17:15:52;7.20;;;2.00;;
36359;SDS011;22388;52.432;20.662;2023-07-08T17:19:16;5.40;;;2.63;;
36359;SDS011;22388;52.432;20.662;2023-07-08T17:22:41;9.05;;;2.50;;
36359;SDS011;22388;52.432;20.662;2023-07-08T17:26:05;9.05;;;2.50;;
36359;SDS011;22388;52.432;20.662;2023-07-08T17:29:30;7.72;;;2.63;;
36359;SDS011;22388;52.432;20.662;2023-07-08T17:32:57;5.95;;;2.58;;
36359;SDS011;22388;52.432;20.662;2023-07-08T17:36:27;3.53;;;2.25;;
36359;SDS011;22388;52.432;20.662;2023-07-08T17:39:52;8.75;;;2.55;;
36359;SDS011;22388;52.432;20.662;2023-07-08T17:43:16;4.53;;;2.58;;
36359;SDS011;22388;52.432;20.662;2023-07-08T17:46:40;5.43;;;2.33;;
36359;SDS011;22388;52.432;20.662;2023-07-08T17:50:18;6.95;;;2.38;;
36359;SDS011;22388;52.432;20.662;2023-07-08T17:53:44;9.73;;;2.80;;
36359;SDS011;22388;52.432;20.662;2023-07-08T17:57:08;6.97;;;2.20;;
36359;SDS011;22388;52.432;20.662;2023-07-08T18:00:34;5.75;;;2.35;;
36359;SDS011;22388;52.432;20.662;2023-07-08T18:03:58;9.35;;;3.28;;
36359;SDS011;22388;52.432;20.662;2023-07-08T18:07:23;6.25;;;2.42;;
36359;SDS011;22388;52.432;20.662;2023-07-08T18:10:47;5.05;;;2.50;;
36359;SDS011;22388;52.432;20.662;2023-07-08T18:14:12;10.27;;;2.83;;
36359;SDS011;22388;52.432;20.662;2023-07-08T18:17:50;15.10;;;2.80;;
36359;SDS011;22388;52.432;20.662;2023-07-08T18:21:18;12.70;;;2.88;;
36359;SDS011;22388;52.432;20.662;2023-07-08T18:24:43;7.72;;;2.72;;
36359;SDS011;22388;52.432;20.662;2023-07-08T18:28:09;6.38;;;2.33;;
36359;SDS011;22388;52.432;20.662;2023-07-08T18:31:34;5.07;;;2.50;;
36359;SDS011;22388;52.432;20.662;2023-07-08T18:34:59;9.63;;;2.80;;
36359;SDS011;22388;52.432;20.662;2023-07-08T18:38:23;8.32;;;2.85;;
36359;SDS011;22388;52.432;20.662;2023-07-08T18:41:47;23.35;;;3.40;;
36359;SDS011;22388;52.432;20.662;2023-07-08T18:45:16;14.43;;;3.63;;
36359;SDS011;22388;52.432;20.662;2023-07-08T18:48:41;12.93;;;3.25;;
36359;SDS011;22388;52.432;20.662;2023-07-08T18:52:07;10.25;;;3.00;;
36359;SDS011;22388;52.432;20.662;2023-07-08T18:55:36;7.95;;;3.28;;
36359;SDS011;22388;52.432;20.662;2023-07-08T18:59:01;15.25;;;3.22;;
36359;SDS011;22388;52.432;20.662;2023-07-08T19:05:56;10.75;;;3.22;;
36359;SDS011;22388;52.432;20.662;2023-07-08T19:09:24;14.40;;;3.38;;
36359;SDS011;22388;52.432;20.662;2023-07-08T19:12:54;11.60;;;3.40;;
36359;SDS011;22388;52.432;20.662;2023-07-08T19:16:19;14.60;;;3.97;;
36359;SDS011;22388;52.432;20.662;2023-07-08T19:19:43;9.10;;;3.28;;
36359;SDS011;22388;52.432;20.662;2023-07-08T19:26:38;10.60;;;3.65;;
36359;SDS011;22388;52.432;20.662;2023-07-08T19:30:03;10.95;;;3.85;;
36359;SDS011;22388;52.432;20.662;2023-07-08T19:33:27;14.45;;;3.35;;
36359;SDS011;22388;52.432;20.662;2023-07-08T19:36:51;26.13;;;3.78;;
36359;SDS011;22388;52.432;20.662;2023-07-08T19:40:17;23.58;;;3.83;;
36359;SDS011;22388;52.432;20.662;2023-07-08T19:43:44;20.45;;;3.78;;
36359;SDS011;22388;52.432;20.662;2023-07-08T19:47:09;12.52;;;3.20;;
36359;SDS011;22388;52.432;20.662;2023-07-08T19:50:34;8.45;;;3.55;;
36359;SDS011;22388;52.432;20.662;2023-07-08T19:54:07;6.90;;;3.22;;
36359;SDS011;22388;52.432;20.662;2023-07-08T19:57:38;6.43;;;3.22;;
36359;SDS011;22388;52.432;20.662;2023-07-08T20:01:03;9.90;;;3.53;;
36359;SDS011;22388;52.432;20.662;2023-07-08T20:04:28;6.45;;;3.47;;
36359;SDS011;22388;52.432;20.662;2023-07-08T20:07:55;8.10;;;3.33;;
36359;SDS011;22388;52.432;20.662;2023-07-08T20:11:22;10.85;;;4.10;;
36359;SDS011;22388;52.432;20.662;2023-07-08T20:14:46;12.30;;;4.55;;
36359;SDS011;22388;52.432;20.662;2023-07-08T20:18:11;13.43;;;3.95;;
36359;SDS011;22388;52.432;20.662;2023-07-08T20:21:43;9.13;;;3.97;;
36359;SDS011;22388;52.432;20.662;2023-07-08T20:25:10;11.25;;;4.20;;
36359;SDS011;22388;52.432;20.662;2023-07-08T20:28:53;10.57;;;4.45;;
36359;SDS011;22388;52.432;20.662;2023-07-08T20:32:18;9.40;;;3.95;;
36359;SDS011;22388;52.432;20.662;2023-07-08T20:35:42;12.10;;;4.20;;
36359;SDS011;22388;52.432;20.662;2023-07-08T20:39:06;8.18;;;4.18;;
36359;SDS011;22388;52.432;20.662;2023-07-08T20:42:33;9.32;;;4.30;;
36359;SDS011;22388;52.432;20.662;2023-07-08T20:46:04;11.80;;;4.80;;
36359;SDS011;22388;52.432;20.662;2023-07-08T20:49:40;7.95;;;4.30;;
36359;SDS011;22388;52.432;20.662;2023-07-08T20:53:04;14.75;;;4.57;;
36359;SDS011;22388;52.432;20.662;2023-07-08T20:56:30;27.88;;;5.25;;
36359;SDS011;22388;52.432;20.662;2023-07-08T20:59:55;8.40;;;4.05;;
36359;SDS011;22388;52.432;20.662;2023-07-08T21:03:20;9.23;;;3.38;;
36359;SDS011;22388;52.432;20.662;2023-07-08T21:06:45;10.48;;;4.13;;
36359;SDS011;22388;52.432;20.662;2023-07-08T21:10:19;6.50;;;3.60;;
36359;SDS011;22388;52.432;20.662;2023-07-08T21:13:43;7.57;;;4.20;;
36359;SDS011;22388;52.432;20.662;2023-07-08T21:17:14;8.00;;;3.78;;
36359;SDS011;22388;52.432;20.662;2023-07-08T21:20:40;9.40;;;4.10;;
36359;SDS011;22388;52.432;20.662;2023-07-08T21:24:07;7.38;;;3.65;;
36359;SDS011;22388;52.432;20.662;2023-07-08T21:27:33;15.35;;;4.10;;
36359;SDS011;22388;52.432;20.662;2023-07-08T21:31:02;9.68;;;4.03;;
36359;SDS011;22388;52.432;20.662;2023-07-08T21:34:27;10.30;;;3.50;;